Pagrindinis puslapis
METAR-TAF:

METAR-TAF

Oro uostai :

Kuveitas, Kuveitas

platuma: 29-13N, ilguma: 047-59E, Aukštis: 55 m

Dabartinis oras

Ataskaita buvo paskelbta 1 valandą ir 0 minutes, ne 08:00 UTC
Vėjas 12 kt iš Šiaurės
Temperatūra 36°C
Drėgmė 19%
Slėgis 1014 hPa
Matomumas 10 km arba daugiau
nėra debesų žemiau 1500 m ir nėra kamuolinių lietaus debesų

METAR: OKBK 180800Z 35012KT CAVOK 36/09 Q1014 NOSIG

Laikas: 12:00 (09:00 UTC)

Prognozė

Ataskaita buvo paskelbta 4 valandos ir 15 minutes, ne 04:45 UTC
Prognozė galioja nuo 18 metu 06 UTC su 19 metu 12 UTC
Vėjas 8 kt iš Šiaurės/Šiaurės Vakarų su gūsio iki 18 kt
Matomumas: 6000 m

TAF: OKBK 180445Z 1806/1912 34008G18KT 6000 NSC

Orai ataskaitas ir orų prognozės (METAR, TAF).

turimą stotys yra geltonos ir raudonos taškus žemėlapyje.

Perkelti pele per norėdami pamatyti stoties vardą.

Tada spustelėkite, norėdami matyti oro stebėjimo ir prognozės.

Norėdami pakeisti žemėlapį: spustelėkite ant žalios mygtukų su juodo kryžiaus žemyn,; žalią mygtuką su brūkšneliu, jei norite nutolinti; arba žalių rodyklių gretimoms žemėlapius.


METAR-TAF: